KFLD/FLD METAR and TAF weather

Enter ICAO airport designator
Station Type Date Time Source
KFLD METAR 2019/06/27 07:53 UTC NOAA

KFLD 270753Z AUTO 18004KT 9SM CLR 16/14 A3012 RMK AO2 SLP196 T01610144


Station Type Date Time Source
KFLD Decoded METAR 2019/06/27 07:53 UTC NOAA

FOND DU LAC COUNTY AIRPORT, WI, United States (KFLD) 43-46N 88-29W 240M
Jun 27, 2019 - 03:53 AM EDT / 2019.06.27 0753 UTC
Wind: from the S (180 degrees) at 5 MPH (4 KT):0
Visibility: 9 mile(s):0
Sky conditions: clear
Temperature: 61.0 F (16.1 C)
Dew Point: 57.9 F (14.4 C)
Relative Humidity: 89%
Pressure (altimeter): 30.12 in. Hg (1019 hPa)
ob: KFLD 270753Z AUTO 18004KT 9SM CLR 16/14 A3012 RMK AO2 SLP196 T01610144
cycle: 8

Station Type Date Time Source
KFLD TAF UTC NOAA

Error!

Example: see airport list